River Of Ponds, Canada
Current Conditions -  °F | °C
As of 10:12 AM on Friday 19 Dec 2014 (Local Time) from CWDH Reporting Station
Overcast Overcast  
Wind Chill: 24°   Ceiling: 1000
Heat Index: 34°   Visibility: 1.5mi
Dew Point: 29°   Wind: 16mph
Humidity: 84%   Direction: 10°N
Pressure: 29.31"   Gusts: NA
Location:  50.53°N, 57.38°W
Report Text: CWDH 191312Z AUTO 01014KT 1 1/2SM BKN000 OVC010 01/M02 A2931 RMK T00101015 P0002 WSI/SWOB
Loading
Personal Weather Stations






























Interactive Weather Map New forecast layout! Learn more

10-Day Weather Forecast

Advertisements
Track Severe Weather on mobile